createdAt,value
2022-12-31T00:01:52.191Z,4.4
2022-12-31T00:06:58.312Z,3.8
2022-12-31T00:12:04.398Z,3.8
2022-12-31T00:17:10.519Z,4.1
2022-12-31T00:22:16.672Z,3.8
2022-12-31T00:27:22.759Z,4.1
2022-12-31T00:32:28.907Z,3.4
2022-12-31T00:37:34.968Z,4.4
2022-12-31T00:42:40.125Z,3.8
2022-12-31T00:47:46.202Z,4.1
2022-12-31T00:52:52.371Z,4.1
2022-12-31T00:57:58.497Z,4.1
2022-12-31T01:03:04.546Z,4.1
2022-12-31T01:08:10.664Z,4.1
2022-12-31T01:13:16.769Z,3.4
2022-12-31T01:18:21.891Z,4.4
2022-12-31T01:23:27.078Z,3.4
2022-12-31T01:28:33.129Z,3.8
2022-12-31T01:33:39.247Z,3.4
2022-12-31T01:38:45.359Z,3.8
2022-12-31T01:43:51.462Z,3.8
2022-12-31T01:48:57.578Z,4.1
2022-12-31T01:54:03.701Z,4.1
2022-12-31T01:59:09.801Z,3.8
2022-12-31T02:04:15.902Z,4.1
2022-12-31T02:09:22.010Z,4.1
2022-12-31T02:14:28.189Z,4.1
2022-12-31T02:19:34.237Z,4.7
2022-12-31T02:24:40.347Z,3.4
2022-12-31T02:29:45.478Z,3.8
2022-12-31T02:34:51.581Z,4.1
2022-12-31T02:39:57.681Z,4.4
2022-12-31T02:45:03.784Z,3.8
2022-12-31T02:50:09.905Z,3.8
2022-12-31T02:55:16.011Z,4.1
2022-12-31T03:00:22.119Z,4.1
2022-12-31T03:05:27.254Z,3.8
2022-12-31T03:10:32.371Z,3.8
2022-12-31T03:15:37.529Z,4.1
2022-12-31T03:20:42.630Z,4.1
2022-12-31T03:25:53.414Z,4.1
2022-12-31T03:30:53.869Z,3.8
2022-12-31T03:35:58.987Z,4.4
2022-12-31T03:41:05.122Z,4.1
2022-12-31T03:46:11.206Z,4.1
2022-12-31T03:51:17.327Z,4.1
2022-12-31T03:56:23.440Z,4.4
2022-12-31T04:01:29.547Z,3.4
2022-12-31T04:06:35.663Z,4.1
2022-12-31T04:11:41.779Z,4.4
2022-12-31T04:16:47.870Z,3.8
2022-12-31T04:21:53.969Z,4.1
2022-12-31T04:32:06.200Z,3.8
2022-12-31T04:37:11.331Z,4.4
2022-12-31T04:42:17.439Z,4.1
2022-12-31T04:47:23.544Z,4.1
2022-12-31T04:52:29.643Z,4.4
2022-12-31T04:57:35.769Z,4.4
2022-12-31T05:02:41.927Z,4.1
2022-12-31T05:07:47.979Z,3.8
2022-12-31T05:12:54.079Z,4.1
2022-12-31T05:17:59.225Z,4.1
2022-12-31T05:23:04.349Z,4.4
2022-12-31T05:28:10.449Z,4.7
2022-12-31T05:33:16.560Z,5.1
2022-12-31T05:38:22.661Z,4.7
2022-12-31T05:43:28.865Z,4.1
2022-12-31T05:48:34.927Z,3.8
2022-12-31T05:53:40.982Z,4.7
2022-12-31T05:58:47.101Z,4.1
2022-12-31T06:03:53.198Z,4.4
2022-12-31T06:08:59.321Z,4.4
2022-12-31T06:14:05.453Z,4.1
2022-12-31T06:19:11.532Z,4.4
2022-12-31T06:24:17.649Z,4.1
2022-12-31T06:29:22.766Z,4.7
2022-12-31T06:34:28.886Z,4.4
2022-12-31T06:39:34.980Z,4.1
2022-12-31T06:44:41.121Z,4.4
2022-12-31T06:49:47.194Z,4.1
2022-12-31T06:54:53.318Z,4.4
2022-12-31T06:59:59.428Z,4.7
2022-12-31T07:05:04.610Z,4.1
2022-12-31T07:10:09.735Z,3.8
2022-12-31T07:15:15.794Z,4.4
2022-12-31T07:20:21.896Z,4.4
2022-12-31T07:25:28.055Z,4.1
2022-12-31T07:30:34.113Z,4.1
2022-12-31T07:35:40.230Z,4.7
2022-12-31T07:40:46.345Z,5.1
2022-12-31T07:45:52.448Z,4.4
2022-12-31T07:50:58.595Z,4.4
2022-12-31T07:56:04.669Z,4.4
2022-12-31T08:01:10.907Z,4.7
2022-12-31T08:06:16.948Z,4.1
2022-12-31T08:11:22.986Z,4.1
2022-12-31T08:16:28.129Z,4.4
2022-12-31T08:21:34.225Z,4.4
2022-12-31T08:26:40.349Z,4.1
2022-12-31T08:31:46.463Z,4.4
2022-12-31T08:36:52.562Z,4.4
2022-12-31T08:41:58.747Z,4.1
2022-12-31T08:47:04.801Z,4.7
2022-12-31T08:52:09.924Z,4.4
2022-12-31T08:57:15.036Z,4.4
2022-12-31T09:02:21.169Z,4.1
2022-12-31T09:07:27.324Z,4.7
2022-12-31T09:12:33.379Z,4.7
2022-12-31T09:17:39.500Z,4.7
2022-12-31T09:22:45.614Z,5.1
2022-12-31T09:27:51.721Z,4.7
2022-12-31T09:32:57.824Z,4.4
2022-12-31T09:38:03.964Z,4.7
2022-12-31T09:43:10.063Z,4.7
2022-12-31T09:48:16.178Z,4.4
2022-12-31T09:53:22.295Z,4.7
2022-12-31T09:58:28.400Z,4.4
2022-12-31T10:03:37.603Z,5.4
2022-12-31T10:08:39.629Z,4.7
2022-12-31T10:13:45.744Z,5.1
2022-12-31T10:18:51.862Z,4.7
2022-12-31T10:29:04.159Z,5.1
2022-12-31T10:34:10.284Z,5.1
2022-12-31T10:39:16.377Z,4.7
2022-12-31T10:44:22.489Z,4.4
2022-12-31T10:49:28.609Z,4.4
2022-12-31T10:54:34.642Z,4.7
2022-12-31T10:59:40.766Z,5.1
2022-12-31T11:04:46.886Z,4.7
2022-12-31T11:09:52.024Z,4.7
2022-12-31T11:14:58.154Z,4.7
2022-12-31T11:20:04.216Z,5.1
2022-12-31T11:25:10.347Z,4.7
2022-12-31T11:30:16.448Z,5.1
2022-12-31T11:35:22.657Z,4.7
2022-12-31T11:40:28.673Z,5.4
2022-12-31T11:45:34.771Z,4.7
2022-12-31T11:50:40.931Z,5.1
2022-12-31T11:55:47.039Z,5.1
2022-12-31T12:00:53.157Z,4.4
2022-12-31T12:05:59.243Z,4.7
2022-12-31T12:11:05.363Z,4.7
2022-12-31T12:16:10.592Z,4.7
2022-12-31T12:21:16.661Z,5.4
2022-12-31T12:26:22.685Z,4.7
2022-12-31T12:31:28.948Z,5.1
2022-12-31T12:36:34.949Z,5.1
2022-12-31T12:41:41.101Z,5.1
2022-12-31T12:46:47.230Z,5.1
2022-12-31T12:51:53.356Z,5.1
2022-12-31T12:56:59.379Z,4.7
2022-12-31T13:02:05.527Z,5.4
2022-12-31T13:07:11.607Z,5.7
2022-12-31T13:12:17.700Z,5.4
2022-12-31T13:17:23.879Z,5.4
2022-12-31T13:22:28.955Z,5.1
2022-12-31T13:27:35.081Z,5.4
2022-12-31T13:32:41.246Z,5.4
2022-12-31T13:37:47.293Z,5.7
2022-12-31T13:42:53.429Z,5.1
2022-12-31T13:47:59.593Z,5.4
2022-12-31T13:53:05.611Z,5.7
2022-12-31T13:58:11.721Z,5.1
2022-12-31T14:03:17.861Z,5.1
2022-12-31T14:08:23.949Z,5.4
2022-12-31T14:13:30.081Z,5.4
2022-12-31T14:18:36.227Z,5.4
2022-12-31T14:23:42.321Z,5.7
2022-12-31T14:28:47.506Z,5.4
2022-12-31T14:33:53.553Z,5.4
2022-12-31T14:38:59.629Z,5.7
2022-12-31T14:44:05.762Z,5.4
2022-12-31T14:49:11.869Z,5.4
2022-12-31T14:54:18.065Z,5.4
2022-12-31T14:59:24.099Z,5.7
2022-12-31T15:04:30.233Z,5.4
2022-12-31T15:09:38.007Z,5.4
2022-12-31T15:14:42.541Z,5.7
2022-12-31T15:19:48.624Z,5.4
2022-12-31T15:24:54.656Z,5.4
2022-12-31T15:30:00.811Z,5.7
2022-12-31T15:35:05.940Z,5.7
2022-12-31T15:40:12.009Z,5.7
2022-12-31T15:45:18.177Z,5.7
2022-12-31T15:50:24.250Z,6
2022-12-31T15:55:30.347Z,5.7
2022-12-31T16:00:36.626Z,5.7
2022-12-31T16:05:42.665Z,5.4
2022-12-31T16:10:48.689Z,4.7
2022-12-31T16:15:54.804Z,6
2022-12-31T16:21:00.912Z,5.4
2022-12-31T16:26:07.047Z,6
2022-12-31T16:31:13.142Z,6
2022-12-31T16:41:25.514Z,6
2022-12-31T16:46:30.491Z,5.4
2022-12-31T16:51:36.699Z,6.3
2022-12-31T16:56:42.791Z,6
2022-12-31T17:01:48.841Z,5.7
2022-12-31T17:06:54.980Z,5.1
2022-12-31T17:12:01.196Z,5.7
2022-12-31T17:17:07.207Z,6
2022-12-31T17:22:13.348Z,6.3
2022-12-31T17:27:19.445Z,6.7
2022-12-31T17:32:25.535Z,6
2022-12-31T17:37:31.650Z,5.7
2022-12-31T17:42:37.814Z,5.7
2022-12-31T17:47:43.921Z,6
2022-12-31T17:52:49.004Z,5.7
2022-12-31T17:57:55.145Z,6
2022-12-31T18:03:01.219Z,5.7
2022-12-31T18:08:07.408Z,6
2022-12-31T18:13:13.466Z,5.7
2022-12-31T18:18:19.557Z,6
2022-12-31T18:23:25.680Z,6.3
2022-12-31T18:28:31.872Z,5.7
2022-12-31T18:33:37.981Z,6
2022-12-31T18:38:44.060Z,6
2022-12-31T18:43:50.251Z,6
2022-12-31T18:48:56.792Z,5.7
2022-12-31T18:54:02.395Z,6
2022-12-31T18:59:07.482Z,6
2022-12-31T19:04:13.576Z,6
2022-12-31T19:09:29.995Z,6.3
2022-12-31T19:14:25.915Z,6.3
2022-12-31T19:24:38.026Z,5.7
2022-12-31T19:29:44.147Z,6
2022-12-31T19:34:50.266Z,6.3
